• Join FlightAware (Why Join?)
  • Login
  • US Flag 
09:28AM EDT


 

Airport Tracker/Info


-or-


 

Live Flight TrackerFlight Track Log ✈ SWA1044 ✈ 10-Apr-2013 ✈ KMCI - KMSY

Flight Track Log - Related Links

Times and Time Zones

All times are in EDT time to prevent confusion due to time zone crossing. See the SWA1044 flight status page for this flight to view local times or setup timezone preferences in your user account.

Time Position Orientation Groundspeed Altitude Reporting Facility
EDT Latitude Longitude Course Direction KTS MPH feet Rate Location/Type
10:03AM 39.3661 -94.6839 35° Northeast 207 238 4,300  Level Kansas City Center
10:04AM 39.4164 -94.6378 35° Northeast 231 266 7,700 2,880 Climbing Kansas City Center
10:05AM 39.4542 -94.5592 58° Northeast 272 313 10,400 3,180 Climbing Kansas City Center
10:06AM 39.4375 -94.4567 102° East 265 305 14,200 2,880 Climbing Kansas City Center
10:07AM 39.4103 -94.3678 112° Southeast 277 319 16,300 2,460 Climbing Kansas City Center
10:08AM 39.3692 -94.2447 113° Southeast 331 381 19,300 2,820 Climbing Kansas City Center
10:09AM 39.3311 -94.1356 114° Southeast 345 397 22,100 2,100 Climbing Kansas City Center
10:10AM 39.2442 -94.0711 150° Southeast 330 380 23,700 1,620 Climbing Kansas City Center
10:11AM 39.1528 -94.0294 161° South 357 411 25,500 1,920 Climbing Kansas City Center
10:12AM 39.0569 -93.9864 161° South 375 432 27,700 2,220 Climbing Kansas City Center
10:13AM 38.9414 -93.9367 161° South 388 447 30,100 2,220 Climbing Kansas City Center
10:14AM 38.8442 -93.8950 162° South 384 442 32,200 2,100 Climbing Kansas City Center
10:15AM 38.7328 -93.8475 162° South 378 435 34,500 1,860 Climbing Kansas City Center
10:16AM 38.6408 -93.8061 161° South 368 423 36,100 1,200 Climbing Kansas City Center
10:17AM 38.5467 -93.7664 162° South 369 425 37,000 420 Climbing Kansas City Center
10:18AM 38.4381 -93.7175 161° South 371 427 37,000 300 Level Kansas City Center
10:19AM 38.3347 -93.6736 162° South 382 440 37,700 900 Climbing Kansas City Center
10:20AM 38.2267 -93.6281 162° South 399 459 38,900 600 Climbing Kansas City Center
10:21AM 38.1211 -93.5833 162° South 401 461 39,000  Climbing Kansas City Center
10:22AM 38.0147 -93.5372 161° South 403 464 39,000  Level Kansas City Center
10:23AM 37.9078 -93.4933 162° South 403 464 39,000  Level Kansas City Center
10:24AM 37.7789 -93.4369 161° South 406 467 39,000  Level Kansas City Center
10:25AM 37.6714 -93.3922 162° South 406 467 39,000  Level Kansas City Center
10:26AM 37.5631 -93.3464 161° South 408 470 39,000  Level Kansas City Center
10:27AM 37.4525 -93.3017 162° South 413 475 39,000  Level Kansas City Center
10:28AM 37.3375 -93.2503 160° South 425 489 39,000  Level Kansas City Center
10:29AM 37.2258 -93.2044 162° South 425 489 39,000  Level Kansas City Center
10:30AM 37.1142 -93.1578 162° South 422 486 39,000  Level Kansas City Center
10:31AM 37.0014 -93.1125 162° South 424 488 39,000  Level Kansas City Center
10:32AM 36.8892 -93.0661 162° South 423 487 39,000  Level Kansas City Center
10:33AM 36.7950 -93.0308 163° South 434 499 39,000  Level Memphis Center
10:34AM 36.6792 -92.9831 162° South 434 499 39,000  Level Memphis Center
10:35AM 36.5697 -92.9356 161° South 434 499 39,000  Level Memphis Center
10:36AM 36.4519 -92.8878 162° South 434 499 39,000  Level Memphis Center
10:37AM 36.3383 -92.8431 162° South 434 499 39,000  Level Memphis Center
10:38AM 36.2225 -92.7958 162° South 434 499 39,000  Level Memphis Center
10:39AM 36.1044 -92.7486 162° South 434 499 39,000  Level Memphis Center
10:40AM 35.9886 -92.6992 161° South 434 499 39,000  Level Memphis Center
10:41AM 35.8603 -92.6469 162° South 434 499 39,000  Level Memphis Center
10:42AM 35.7444 -92.6003 162° South 434 499 39,000  Level Memphis Center
10:43AM 35.6264 -92.5536 162° South 439 505 39,000  Level Memphis Center
10:44AM 35.5083 -92.5044 161° South 439 505 39,000  Level Memphis Center
10:45AM 35.3922 -92.4583 162° South 439 505 39,000  Level Memphis Center
10:46AM 35.2742 -92.4147 163° South 439 505 39,000  Level Memphis Center
10:47AM 35.1561 -92.3686 162° South 439 505 39,000  Level Memphis Center
10:48AM 35.0419 -92.3203 161° South 439 505 39,000  Level Memphis Center
10:49AM 34.9258 -92.2769 163° South 434 499 39,000  Level Memphis Center
10:50AM 34.8097 -92.2314 162° South 439 505 39,000  Level Memphis Center
10:51AM 34.6936 -92.1833 161° South 439 505 39,000  Level Memphis Center
10:52AM 34.5797 -92.1228 156° South 439 505 39,000  Level Memphis Center
10:53AM 34.4700 -92.0575 154° Southeast 444 511 39,000  Level Memphis Center
10:54AM 34.3625 -91.9900 153° Southeast 444 511 39,000  Level Memphis Center
10:55AM 34.2483 -91.9303 157° South 444 511 39,000  Level Memphis Center
10:56AM 34.1386 -91.8628 153° Southeast 438 504 39,000  Level Memphis Center
10:57AM 34.0411 -91.8061 154° Southeast 438 504 39,000  Level Memphis Center
10:58AM 33.9292 -91.7392 154° Southeast 443 510 39,000  Level Memphis Center
10:59AM 33.8111 -91.6747 156° South 448 516 39,000  Level Memphis Center
11:00AM 33.7011 -91.6106 154° Southeast 448 516 39,000  Level Memphis Center
11:01AM 33.5889 -91.5442 154° Southeast 448 516 39,000  Level Memphis Center
11:02AM 33.4789 -91.4831 155° Southeast 441 507 39,000  Level Memphis Center
11:03AM 33.3586 -91.4117 154° Southeast 441 507 39,000  Level Memphis Center
11:04AM 33.2506 -91.3483 154° Southeast 441 507 39,000  Level Memphis Center
11:05AM 33.1383 -91.2850 155° Southeast 441 507 39,000  Level Memphis Center
11:06AM 33.0281 -91.2219 154° Southeast 441 507 39,000  Level Memphis Center
11:07AM 32.9178 -91.1567 154° Southeast 441 507 39,000  Level Memphis Center
11:08AM 32.8056 -91.0964 156° South 441 507 39,000  Level Memphis Center
11:09AM 32.6931 -91.0311 154° Southeast 441 507 39,000  Level Memphis Center
11:10AM 32.5850 -90.9711 155° Southeast 441 507 39,000  Level Memphis Center
11:11AM 32.4744 -90.9089 155° Southeast 441 507 39,000  Level Memphis Center
11:12AM 32.3642 -90.8442 154° Southeast 441 507 39,000  Level Memphis Center
11:13AM 32.2494 -90.7822 155° Southeast 441 507 39,000 -840 Level Memphis Center
11:14AM 32.1411 -90.7228 155° Southeast 441 507 37,400 -2,220 Descending Memphis Center
11:15AM 32.0708 -90.6811 153° Southeast 445 512 35,400 -2,820 Descending Houston Center
11:16AM 31.9533 -90.6153 155° Southeast 465 535 32,700 -2,820 Descending Houston Center
11:17AM 31.8378 -90.5519 155° Southeast 459 528 29,600 -2,280 Descending Houston Center
11:18AM 31.7286 -90.4903 154° Southeast 441 507 28,000 -960 Descending Houston Center
11:19AM 31.6228 -90.4331 155° Southeast 421 484 27,700 -660 Descending Houston Center
11:20AM 31.5175 -90.3750 155° Southeast 419 482 26,700 -1,080 Descending Houston Center
11:21AM 31.3964 -90.3086 155° Southeast 403 464 25,500 -840 Descending Houston Center
11:22AM 31.2950 -90.2583 157° South 396 456 25,000 -300 Descending Houston Center
11:23AM 31.1869 -90.2503 176° South 388 447 25,000 -360 Level Houston Center
11:24AM 31.0797 -90.2408 176° South 387 445 24,300 -2,160 Descending Houston Center
11:25AM 30.9725 -90.2342 177° South 384 442 20,500 -4,020 Descending Houston Center
11:26AM 30.8325 -90.2231 176° South 418 481 16,000 -3,300 Descending Houston Center
11:27AM 30.7208 -90.2156 177° South 406 467 13,700 -2,340 Descending Houston Center
11:27AM 30.6872 -90.2106 173° South 387 445 13,000 -1,980 Descending Houston Center
11:28AM 30.6214 -90.1961 169° South 370 426 11,700 -1,800 Descending Houston Center
11:29AM 30.5269 -90.1767 170° South 350 403 9,800 -1,500 Descending Houston Center
11:30AM 30.4564 -90.1197 145° Southeast 318 366 8,700 -1,500 Descending Houston Center
11:31AM 30.3733 -90.0572 147° Southeast 253 291 6,400 -1,800 Descending Houston Center
11:32AM 30.3297 -90.0986 219° Southwest 258 297 5,000 -1,320 Descending Houston Center
11:33AM 30.2739 -90.1578 222° Southwest 243 280 3,900 -960 Descending Houston Center
11:34AM 30.2161 -90.1769 196° South 183 211 3,000 -600 Descending Houston Center
11:35AM 30.1833 -90.1881 196° South 190 219 2,700 -240 Descending Houston Center
11:36AM 30.1403 -90.2022 196° South 156 180 2,600 -300 Descending Houston Center
11:37AM 30.1044 -90.2128 194° South 133 153 2,100 -660 Descending Houston Center
11:38AM 30.0733 -90.2236 197° South 129 148 1,400 -720 Descending Houston Center
11:39AM 30.0381 -90.2347 195° South 127 146 800 -480 Descending Houston Center
11:41AM 29.9969 -90.2497 198° South 128 147 400 -360 Descending Houston Center